createdAt,value
2023-04-09T00:02:21.381Z,-67
2023-04-09T00:04:48.021Z,-67
2023-04-09T00:07:14.586Z,-68
2023-04-09T00:09:41.014Z,-67
2023-04-09T00:12:07.482Z,-67
2023-04-09T00:14:33.980Z,-67
2023-04-09T00:17:00.483Z,-67
2023-04-09T00:19:26.991Z,-67
2023-04-09T00:21:53.465Z,-67
2023-04-09T00:24:19.949Z,-68
2023-04-09T00:26:46.421Z,-67
2023-04-09T00:29:12.908Z,-67
2023-04-09T00:31:39.460Z,-67
2023-04-09T00:34:05.965Z,-67
2023-04-09T00:36:34.089Z,-67
2023-04-09T00:39:00.578Z,-67
2023-04-09T00:41:27.051Z,-67
2023-04-09T00:43:53.536Z,-67
2023-04-09T00:46:20.052Z,-67
2023-04-09T00:48:46.562Z,-67
2023-04-09T00:51:13.053Z,-67
2023-04-09T00:53:39.540Z,-67
2023-04-09T00:56:06.000Z,-67
2023-04-09T00:58:32.520Z,-67
2023-04-09T01:00:59.060Z,-67
2023-04-09T01:03:25.749Z,-67
2023-04-09T01:05:52.281Z,-67
2023-04-09T01:08:18.775Z,-67
2023-04-09T01:10:45.247Z,-67
2023-04-09T01:13:11.711Z,-67
2023-04-09T01:15:38.197Z,-67
2023-04-09T01:18:04.676Z,-67
2023-04-09T01:20:31.162Z,-67
2023-04-09T01:22:57.633Z,-67
2023-04-09T01:25:24.144Z,-67
2023-04-09T01:27:50.615Z,-67
2023-04-09T01:30:17.109Z,-67
2023-04-09T01:32:43.607Z,-67
2023-04-09T01:35:10.113Z,-67
2023-04-09T01:37:36.607Z,-67
2023-04-09T01:40:03.109Z,-67
2023-04-09T01:42:29.593Z,-67
2023-04-09T01:44:56.099Z,-67
2023-04-09T01:47:28.402Z,-67
2023-04-09T01:49:54.932Z,-67
2023-04-09T01:52:21.406Z,-68
2023-04-09T01:54:47.914Z,-67
2023-04-09T01:57:14.412Z,-67
2023-04-09T01:59:40.932Z,-67
2023-04-09T02:02:07.421Z,-67
2023-04-09T02:04:33.931Z,-67
2023-04-09T02:07:00.395Z,-67
2023-04-09T02:09:26.862Z,-67
2023-04-09T02:11:53.350Z,-67
2023-04-09T02:14:19.812Z,-67
2023-04-09T02:16:46.294Z,-67
2023-04-09T02:19:12.753Z,-67
2023-04-09T02:21:39.237Z,-67
2023-04-09T02:24:05.706Z,-67
2023-04-09T02:26:32.186Z,-67
2023-04-09T02:28:58.674Z,-67
2023-04-09T02:31:25.196Z,-67
2023-04-09T02:33:51.762Z,-67
2023-04-09T02:36:18.230Z,-68
2023-04-09T02:38:44.688Z,-68
2023-04-09T02:41:12.285Z,-67
2023-04-09T02:43:38.765Z,-67
2023-04-09T02:46:05.289Z,-67
2023-04-09T02:48:31.791Z,-67
2023-04-09T02:50:58.265Z,-67
2023-04-09T02:53:24.750Z,-67
2023-04-09T02:55:51.268Z,-67
2023-04-09T02:58:17.748Z,-67
2023-04-09T03:00:44.200Z,-67
2023-04-09T03:03:16.540Z,-67
2023-04-09T03:05:43.179Z,-68
2023-04-09T03:08:09.651Z,-67
2023-04-09T03:10:36.159Z,-67
2023-04-09T03:13:02.637Z,-67
2023-04-09T03:15:29.115Z,-67
2023-04-09T03:17:55.619Z,-67
2023-04-09T03:20:22.120Z,-67
2023-04-09T03:22:48.604Z,-67
2023-04-09T03:25:15.074Z,-67
2023-04-09T03:27:41.529Z,-67
2023-04-09T03:30:07.996Z,-67
2023-04-09T03:32:34.488Z,-67
2023-04-09T03:35:00.969Z,-67
2023-04-09T03:37:27.480Z,-67
2023-04-09T03:40:04.332Z,-67
2023-04-09T03:42:30.830Z,-67
2023-04-09T03:44:57.318Z,-67
2023-04-09T03:47:23.834Z,-67
2023-04-09T03:49:50.317Z,-67
2023-04-09T03:52:22.301Z,-67
2023-04-09T03:54:48.757Z,-67
2023-04-09T03:57:15.261Z,-67
2023-04-09T03:59:41.720Z,-67
2023-04-09T04:02:08.314Z,-67
2023-04-09T04:04:34.964Z,-67
2023-04-09T04:07:01.539Z,-67
2023-04-09T04:09:28.012Z,-67
2023-04-09T04:11:54.511Z,-67
2023-04-09T04:14:21.000Z,-67
2023-04-09T04:16:47.521Z,-67
2023-04-09T04:19:13.999Z,-67
2023-04-09T04:21:40.466Z,-67
2023-04-09T04:24:06.940Z,-67
2023-04-09T04:26:33.441Z,-67
2023-04-09T04:28:59.938Z,-67
2023-04-09T04:31:26.436Z,-67
2023-04-09T04:33:52.932Z,-68
2023-04-09T04:36:19.404Z,-67
2023-04-09T04:38:45.873Z,-67
2023-04-09T04:41:12.340Z,-67
2023-04-09T04:43:38.855Z,-67
2023-04-09T04:46:05.351Z,-67
2023-04-09T04:48:32.119Z,-67
2023-04-09T04:50:58.617Z,-67
2023-04-09T04:53:25.113Z,-67
2023-04-09T04:55:52.317Z,-67
2023-04-09T04:58:18.783Z,-67
2023-04-09T05:00:45.295Z,-68
2023-04-09T05:03:11.876Z,-67
2023-04-09T05:05:38.404Z,-67
2023-04-09T05:08:04.888Z,-67
2023-04-09T05:10:31.350Z,-67
2023-04-09T05:12:57.836Z,-67
2023-04-09T05:15:24.350Z,-67
2023-04-09T05:17:50.851Z,-67
2023-04-09T05:20:17.379Z,-67
2023-04-09T05:22:46.533Z,-67
2023-04-09T05:25:13.062Z,-67
2023-04-09T05:27:39.539Z,-67
2023-04-09T05:30:06.004Z,-67
2023-04-09T05:32:32.503Z,-67
2023-04-09T05:34:58.976Z,-67
2023-04-09T05:37:25.456Z,-67
2023-04-09T05:39:51.926Z,-67
2023-04-09T05:42:18.387Z,-67
2023-04-09T05:44:44.875Z,-67
2023-04-09T05:47:11.338Z,-67
2023-04-09T05:49:37.825Z,-68
2023-04-09T05:52:04.316Z,-67
2023-04-09T05:54:30.792Z,-67
2023-04-09T05:56:57.263Z,-67
2023-04-09T05:59:23.752Z,-67
2023-04-09T06:01:50.261Z,-67
2023-04-09T06:04:16.909Z,-68
2023-04-09T06:06:43.694Z,-67
2023-04-09T06:09:10.176Z,-67
2023-04-09T06:11:36.630Z,-67
2023-04-09T06:14:03.110Z,-67
2023-04-09T06:16:29.582Z,-67
2023-04-09T06:18:56.047Z,-67
2023-04-09T06:21:22.518Z,-67
2023-04-09T06:23:48.990Z,-68
2023-04-09T06:26:15.480Z,-67
2023-04-09T06:28:41.946Z,-67
2023-04-09T06:31:08.505Z,-67
2023-04-09T06:33:35.063Z,-67
2023-04-09T06:36:01.606Z,-68
2023-04-09T06:38:28.099Z,-67
2023-04-09T06:40:54.579Z,-68
2023-04-09T06:43:21.051Z,-67
2023-04-09T06:45:47.552Z,-67
2023-04-09T06:48:14.036Z,-67
2023-04-09T06:50:40.510Z,-67
2023-04-09T06:53:06.989Z,-67
2023-04-09T06:55:33.491Z,-67
2023-04-09T06:57:59.959Z,-67
2023-04-09T07:00:26.480Z,-67
2023-04-09T07:02:53.169Z,-67
2023-04-09T07:05:19.922Z,-67
2023-04-09T07:07:46.381Z,-68
2023-04-09T07:10:12.862Z,-68
2023-04-09T07:12:39.356Z,-67
2023-04-09T07:15:05.905Z,-67
2023-04-09T07:17:32.479Z,-67
2023-04-09T07:19:58.995Z,-67
2023-04-09T07:22:25.458Z,-67
2023-04-09T07:24:51.969Z,-67
2023-04-09T07:27:18.439Z,-67
2023-04-09T07:29:45.075Z,-67
2023-04-09T07:32:11.581Z,-67
2023-04-09T07:34:38.074Z,-67
2023-04-09T07:37:04.555Z,-67
2023-04-09T07:39:31.086Z,-68
2023-04-09T07:41:57.613Z,-67
2023-04-09T07:44:24.081Z,-67
2023-04-09T07:46:50.611Z,-67
2023-04-09T07:49:17.089Z,-67
2023-04-09T07:51:43.693Z,-68
2023-04-09T07:54:10.190Z,-67
2023-04-09T07:56:36.681Z,-67
2023-04-09T07:59:03.140Z,-67
2023-04-09T08:01:29.630Z,-67
2023-04-09T08:03:56.320Z,-67
2023-04-09T08:06:22.893Z,-67
2023-04-09T08:08:49.412Z,-67
2023-04-09T08:11:15.921Z,-68
2023-04-09T08:13:42.393Z,-67
2023-04-09T08:16:08.886Z,-67
2023-04-09T08:18:35.375Z,-67
2023-04-09T08:21:01.846Z,-68
2023-04-09T08:23:28.338Z,-67
2023-04-09T08:25:54.841Z,-68
2023-04-09T08:28:21.309Z,-67
2023-04-09T08:30:47.846Z,-68
2023-04-09T08:33:14.330Z,-68
2023-04-09T08:35:40.809Z,-67
2023-04-09T08:38:07.305Z,-67
2023-04-09T08:40:33.815Z,-67
2023-04-09T08:43:00.297Z,-68
2023-04-09T08:45:26.790Z,-68
2023-04-09T08:47:53.362Z,-68
2023-04-09T08:50:22.550Z,-68
2023-04-09T08:52:49.056Z,-67
2023-04-09T08:55:15.549Z,-67
2023-04-09T08:57:42.022Z,-67
2023-04-09T09:00:08.553Z,-67
2023-04-09T09:02:35.110Z,-67
2023-04-09T09:05:01.671Z,-68
2023-04-09T09:07:28.204Z,-68
2023-04-09T09:09:54.670Z,-68
2023-04-09T09:12:21.138Z,-67
2023-04-09T09:14:47.586Z,-68
2023-04-09T09:17:14.176Z,-68
2023-04-09T09:19:40.726Z,-67
2023-04-09T09:22:07.189Z,-67
2023-04-09T09:24:33.659Z,-67
2023-04-09T09:27:00.176Z,-73
2023-04-09T09:29:26.656Z,-71
2023-04-09T09:31:53.116Z,-70
2023-04-09T09:34:19.578Z,-64
2023-04-09T09:36:46.058Z,-66
2023-04-09T09:39:12.541Z,-67
2023-04-09T09:41:39.013Z,-68
2023-04-09T09:44:05.485Z,-67
2023-04-09T09:46:32.014Z,-67
2023-04-09T09:48:58.505Z,-67
2023-04-09T09:51:25.040Z,-68
2023-04-09T09:53:51.518Z,-68
2023-04-09T09:56:17.998Z,-67
2023-04-09T09:58:44.474Z,-68
2023-04-09T10:01:10.966Z,-68
2023-04-09T10:03:37.506Z,-68
2023-04-09T10:06:03.965Z,-67
2023-04-09T10:08:30.432Z,-67
2023-04-09T10:10:56.891Z,-68
2023-04-09T10:13:23.361Z,-67
2023-04-09T10:15:49.886Z,-67
2023-04-09T10:18:16.407Z,-67
2023-04-09T10:20:42.894Z,-68
2023-04-09T10:23:09.361Z,-68
2023-04-09T10:25:35.816Z,-67
2023-04-09T10:28:02.366Z,-67
2023-04-09T10:30:28.887Z,-67
2023-04-09T10:32:55.427Z,-68
2023-04-09T10:35:21.924Z,-68
2023-04-09T10:37:48.443Z,-67
2023-04-09T10:40:14.970Z,-68
2023-04-09T10:42:41.489Z,-67
2023-04-09T10:45:08.002Z,-68
2023-04-09T10:47:34.571Z,-67
2023-04-09T10:50:01.113Z,-68
2023-04-09T10:52:27.613Z,-68
2023-04-09T10:54:54.085Z,-67
2023-04-09T10:57:20.590Z,-67
2023-04-09T10:59:47.049Z,-67
2023-04-09T11:02:13.769Z,-67
2023-04-09T11:04:40.358Z,-68
2023-04-09T11:07:06.892Z,-67
2023-04-09T11:09:33.350Z,-68
2023-04-09T11:11:59.854Z,-68
2023-04-09T11:14:26.318Z,-67
2023-04-09T11:16:52.806Z,-67
2023-04-09T11:19:19.277Z,-67
2023-04-09T11:21:45.748Z,-68
2023-04-09T11:24:12.225Z,-68
2023-04-09T11:26:38.688Z,-67
2023-04-09T11:29:05.161Z,-67
2023-04-09T11:31:31.622Z,-68
2023-04-09T11:33:58.088Z,-67
2023-04-09T11:36:24.542Z,-68
2023-04-09T11:38:51.222Z,-67
2023-04-09T11:41:17.926Z,-67
2023-04-09T11:43:44.402Z,-67
2023-04-09T11:46:10.874Z,-68
2023-04-09T11:48:37.348Z,-68
2023-04-09T11:51:03.839Z,-68
2023-04-09T11:53:30.316Z,-68
2023-04-09T11:55:58.656Z,-68
2023-04-09T11:58:25.132Z,-67
2023-04-09T12:00:51.595Z,-67
2023-04-09T12:03:18.238Z,-68
2023-04-09T12:05:48.522Z,-68
2023-04-09T12:08:16.920Z,-67
2023-04-09T12:10:43.385Z,-67
2023-04-09T12:13:09.865Z,-67
2023-04-09T12:15:36.348Z,-68
2023-04-09T12:18:02.865Z,-68
2023-04-09T12:20:29.429Z,-68
2023-04-09T12:22:55.895Z,-67
2023-04-09T12:25:22.371Z,-67
2023-04-09T12:27:48.861Z,-67
2023-04-09T12:30:15.328Z,-67
2023-04-09T12:32:41.856Z,-67
2023-04-09T12:35:08.338Z,-68
2023-04-09T12:37:34.819Z,-68
2023-04-09T12:40:01.325Z,-67
2023-04-09T12:42:27.810Z,-67
2023-04-09T12:44:54.296Z,-68
2023-04-09T12:47:20.751Z,-68
2023-04-09T12:49:47.235Z,-67
2023-04-09T12:52:13.719Z,-67
2023-04-09T12:54:40.218Z,-68
2023-04-09T12:57:06.706Z,-67
2023-04-09T12:59:33.209Z,-68
2023-04-09T13:01:59.818Z,-68
2023-04-09T13:04:26.552Z,-67
2023-04-09T13:06:53.133Z,-67
2023-04-09T13:09:19.630Z,-67
2023-04-09T13:11:46.104Z,-68
2023-04-09T13:14:12.613Z,-67
2023-04-09T13:16:39.129Z,-68
2023-04-09T13:19:05.716Z,-67
2023-04-09T13:21:34.731Z,-67
2023-04-09T13:24:01.223Z,-67
2023-04-09T13:26:27.689Z,-67
2023-04-09T13:28:54.290Z,-68
2023-04-09T13:31:20.901Z,-68
2023-04-09T13:33:47.407Z,-67
2023-04-09T13:36:13.921Z,-67
2023-04-09T13:38:40.452Z,-68
2023-04-09T13:41:06.936Z,-67
2023-04-09T13:43:33.414Z,-67
2023-04-09T13:45:59.907Z,-68
2023-04-09T13:48:26.430Z,-67
2023-04-09T13:50:52.898Z,-67
2023-04-09T13:53:19.375Z,-68
2023-04-09T13:55:45.890Z,-68
2023-04-09T13:58:12.355Z,-67
2023-04-09T14:00:38.836Z,-68
2023-04-09T14:03:05.398Z,-68
2023-04-09T14:05:31.927Z,-67
2023-04-09T14:07:58.397Z,-68
2023-04-09T14:10:24.887Z,-68
2023-04-09T14:12:51.346Z,-72
2023-04-09T14:15:17.821Z,-72
2023-04-09T14:17:44.360Z,-71
2023-04-09T14:20:10.849Z,-71
2023-04-09T14:22:37.337Z,-71
2023-04-09T14:25:03.837Z,-71
2023-04-09T14:27:30.316Z,-72
2023-04-09T14:29:56.815Z,-72
2023-04-09T14:32:23.301Z,-72
2023-04-09T14:34:49.782Z,-73
2023-04-09T14:37:16.265Z,-73
2023-04-09T14:39:42.748Z,-73
2023-04-09T14:42:09.224Z,-72
2023-04-09T14:44:35.699Z,-74
2023-04-09T14:47:04.894Z,-73
2023-04-09T14:49:31.391Z,-73
2023-04-09T14:51:57.882Z,-74
2023-04-09T14:54:24.360Z,-75
2023-04-09T14:56:50.831Z,-73
2023-04-09T14:59:17.305Z,-73
2023-04-09T15:01:43.924Z,-74
2023-04-09T15:04:10.639Z,-74
2023-04-09T15:06:37.243Z,-71
2023-04-09T15:09:03.704Z,-74
2023-04-09T15:11:34.870Z,-72
2023-04-09T15:14:01.359Z,-73
2023-04-09T15:16:27.880Z,-72
2023-04-09T15:18:54.779Z,-68
2023-04-09T15:21:21.478Z,-72
2023-04-09T15:23:47.946Z,-70
2023-04-09T15:26:14.465Z,-70
2023-04-09T15:28:40.930Z,-71
2023-04-09T15:31:07.440Z,-71
2023-04-09T15:33:33.946Z,-71
2023-04-09T15:36:00.482Z,-71
2023-04-09T15:38:26.960Z,-71
2023-04-09T15:40:53.464Z,-71
2023-04-09T15:43:19.954Z,-71
2023-04-09T15:45:46.526Z,-71
2023-04-09T15:48:13.093Z,-71
2023-04-09T15:50:39.662Z,-71
2023-04-09T15:53:06.388Z,-71
2023-04-09T15:55:32.960Z,-71
2023-04-09T15:57:59.465Z,-71
2023-04-09T16:00:25.970Z,-71
2023-04-09T16:02:52.438Z,-71
2023-04-09T16:05:18.924Z,-71
2023-04-09T16:07:45.399Z,-71
2023-04-09T16:10:11.872Z,-71
2023-04-09T16:12:38.353Z,-71
2023-04-09T16:15:04.830Z,-71
2023-04-09T16:17:31.475Z,-70
2023-04-09T16:19:59.187Z,-70
2023-04-09T16:22:25.667Z,-71
2023-04-09T16:24:52.130Z,-71
2023-04-09T16:27:18.591Z,-71
2023-04-09T16:29:45.050Z,-70
2023-04-09T16:32:11.564Z,-71
2023-04-09T16:34:38.176Z,-71
2023-04-09T16:37:04.652Z,-71
2023-04-09T16:39:31.113Z,-71
2023-04-09T16:41:57.582Z,-71
2023-04-09T16:44:24.053Z,-71
2023-04-09T16:46:50.606Z,-71
2023-04-09T16:49:17.070Z,-71
2023-04-09T16:51:43.523Z,-71
2023-04-09T16:54:09.987Z,-71
2023-04-09T16:56:36.473Z,-71
2023-04-09T16:59:02.968Z,-71
2023-04-09T17:01:29.509Z,-71
2023-04-09T17:03:56.144Z,-71
2023-04-09T17:06:22.708Z,-71
2023-04-09T17:08:49.187Z,-71
2023-04-09T17:11:15.660Z,-70
2023-04-09T17:13:42.136Z,-71
2023-04-09T17:16:08.613Z,-71
2023-04-09T17:18:35.034Z,-71
2023-04-09T17:21:01.509Z,-71
2023-04-09T17:23:28.019Z,-71
2023-04-09T17:25:54.495Z,-71
2023-04-09T17:28:20.964Z,-71
2023-04-09T17:30:47.460Z,-71
2023-04-09T17:33:13.956Z,-71
2023-04-09T17:35:40.467Z,-71
2023-04-09T17:38:06.969Z,-71
2023-04-09T17:40:33.449Z,-71
2023-04-09T17:42:59.934Z,-71
2023-04-09T17:45:26.386Z,-71
2023-04-09T17:47:52.889Z,-71
2023-04-09T17:50:19.473Z,-71
2023-04-09T17:52:45.964Z,-71
2023-04-09T17:55:12.471Z,-71
2023-04-09T17:57:38.976Z,-70
2023-04-09T18:00:05.460Z,-71
2023-04-09T18:02:32.247Z,-71
2023-04-09T18:04:59.084Z,-71
2023-04-09T18:07:25.841Z,-71
2023-04-09T18:09:52.340Z,-71
2023-04-09T18:12:18.869Z,-71
2023-04-09T18:14:45.353Z,-71
2023-04-09T18:17:12.228Z,-71
2023-04-09T18:19:39.754Z,-71
2023-04-09T18:22:06.241Z,-71
2023-04-09T18:24:32.698Z,-71
2023-04-09T18:26:59.208Z,-71
2023-04-09T18:29:25.694Z,-71
2023-04-09T18:31:52.159Z,-71
2023-04-09T18:34:20.000Z,-71
2023-04-09T18:36:48.218Z,-71
2023-04-09T18:39:14.702Z,-71
2023-04-09T18:41:41.164Z,-71
2023-04-09T18:44:07.634Z,-71
2023-04-09T18:46:34.134Z,-71
2023-04-09T18:49:00.620Z,-71
2023-04-09T18:51:27.107Z,-71
2023-04-09T18:53:53.586Z,-70
2023-04-09T18:56:20.049Z,-71
2023-04-09T18:58:46.554Z,-70
2023-04-09T19:01:13.017Z,-71
2023-04-09T19:03:39.773Z,-71
2023-04-09T19:06:06.436Z,-71
2023-04-09T19:08:32.914Z,-71
2023-04-09T19:10:59.368Z,-71
2023-04-09T19:13:25.853Z,-71
2023-04-09T19:15:52.334Z,-71
2023-04-09T19:18:18.850Z,-71
2023-04-09T19:20:45.328Z,-71
2023-04-09T19:23:11.802Z,-71
2023-04-09T19:25:38.262Z,-71
2023-04-09T19:28:04.750Z,-70
2023-04-09T19:30:31.233Z,-71
2023-04-09T19:32:57.759Z,-71
2023-04-09T19:35:24.272Z,-71
2023-04-09T19:37:50.799Z,-71
2023-04-09T19:40:17.317Z,-70
2023-04-09T19:42:43.797Z,-71
2023-04-09T19:45:10.258Z,-71
2023-04-09T19:47:36.747Z,-71
2023-04-09T19:50:03.216Z,-71
2023-04-09T19:52:29.676Z,-71
2023-04-09T19:54:56.155Z,-70
2023-04-09T19:57:22.660Z,-71
2023-04-09T19:59:49.973Z,-71
2023-04-09T20:02:16.629Z,-71
2023-04-09T20:04:43.230Z,-71
2023-04-09T20:07:09.691Z,-71
2023-04-09T20:09:36.164Z,-71
2023-04-09T20:12:02.638Z,-70
2023-04-09T20:14:29.129Z,-71
2023-04-09T20:16:55.655Z,-71
2023-04-09T20:19:22.151Z,-71
2023-04-09T20:21:48.620Z,-71
2023-04-09T20:24:15.118Z,-71
2023-04-09T20:26:41.600Z,-70
2023-04-09T20:29:08.099Z,-71
2023-04-09T20:31:34.625Z,-71
2023-04-09T20:34:01.136Z,-71
2023-04-09T20:36:27.605Z,-71
2023-04-09T20:38:54.250Z,-71
2023-04-09T20:41:20.980Z,-70
2023-04-09T20:43:47.473Z,-71
2023-04-09T20:46:13.986Z,-71
2023-04-09T20:48:40.544Z,-71
2023-04-09T20:51:07.005Z,-71
2023-04-09T20:53:33.507Z,-71
2023-04-09T20:56:05.203Z,-71
2023-04-09T20:58:31.679Z,-71
2023-04-09T21:00:58.167Z,-71
2023-04-09T21:03:24.809Z,-71
2023-04-09T21:05:51.429Z,-70
2023-04-09T21:08:17.901Z,-71
2023-04-09T21:10:44.405Z,-71
2023-04-09T21:13:10.906Z,-71
2023-04-09T21:15:37.389Z,-71
2023-04-09T21:18:03.933Z,-71
2023-04-09T21:20:30.443Z,-71
2023-04-09T21:22:56.917Z,-71
2023-04-09T21:25:23.404Z,-71
2023-04-09T21:27:49.876Z,-71
2023-04-09T21:30:16.354Z,-71
2023-04-09T21:32:42.871Z,-71
2023-04-09T21:35:09.342Z,-71
2023-04-09T21:37:35.823Z,-71
2023-04-09T21:40:02.329Z,-71
2023-04-09T21:42:28.793Z,-71
2023-04-09T21:44:55.269Z,-71
2023-04-09T21:47:21.752Z,-71
2023-04-09T21:49:48.228Z,-71
2023-04-09T21:52:15.102Z,-71
2023-04-09T21:54:41.715Z,-71
2023-04-09T21:57:08.168Z,-71
2023-04-09T21:59:34.867Z,-70
2023-04-09T22:02:01.586Z,-71
2023-04-09T22:04:28.196Z,-70
2023-04-09T22:06:54.674Z,-71
2023-04-09T22:09:21.144Z,-71
2023-04-09T22:11:47.631Z,-71
2023-04-09T22:14:14.115Z,-71
2023-04-09T22:16:40.590Z,-70
2023-04-09T22:19:07.076Z,-71
2023-04-09T22:21:33.535Z,-71
2023-04-09T22:24:00.015Z,-71
2023-04-09T22:26:26.479Z,-71
2023-04-09T22:28:53.217Z,-71
2023-04-09T22:31:20.011Z,-71
2023-04-09T22:33:46.508Z,-70
2023-04-09T22:36:13.018Z,-71
2023-04-09T22:38:39.560Z,-71
2023-04-09T22:41:06.055Z,-70
2023-04-09T22:43:32.502Z,-70
2023-04-09T22:45:58.984Z,-71
2023-04-09T22:48:25.456Z,-71
2023-04-09T22:50:51.938Z,-71
2023-04-09T22:53:18.465Z,-71
2023-04-09T22:55:45.032Z,-70
2023-04-09T22:58:11.500Z,-71
2023-04-09T23:00:37.972Z,-71
2023-04-09T23:03:04.581Z,-71
2023-04-09T23:05:31.147Z,-71
2023-04-09T23:07:57.610Z,-71
2023-04-09T23:10:24.080Z,-71
2023-04-09T23:12:50.550Z,-71
2023-04-09T23:15:17.012Z,-71
2023-04-09T23:17:43.522Z,-71
2023-04-09T23:20:10.019Z,-71
2023-04-09T23:22:36.490Z,-71
2023-04-09T23:25:02.996Z,-71
2023-04-09T23:27:29.465Z,-71
2023-04-09T23:29:55.946Z,-71
2023-04-09T23:32:22.454Z,-71
2023-04-09T23:34:48.955Z,-71
2023-04-09T23:37:15.450Z,-71
2023-04-09T23:39:41.918Z,-71
2023-04-09T23:42:08.396Z,-71
2023-04-09T23:44:35.259Z,-71
2023-04-09T23:47:01.785Z,-71
2023-04-09T23:49:28.347Z,-71
2023-04-09T23:51:54.818Z,-71
2023-04-09T23:54:21.266Z,-71
2023-04-09T23:56:47.735Z,-71
2023-04-09T23:59:14.202Z,-71
